Watertown, Illinois
Current Conditions -  °F | °C
As of 9:52 PM on Saturday 24 Jan 2015 (Local Time) from KMLI Reporting Station
Clear Clear  
Wind Chill: 34°   Ceiling: Unl
Heat Index: 34°   Visibility: 10mi
Dew Point: 30°   Wind: 3mph
Humidity: 85%   Direction: 90°E
Pressure: 29.61"   Gusts: NA
Location:  41.5228°N, 90.3951°W
Report Text: KMLI 250352Z 09003KT 10SM CLR 01/M01 A2961 RMK AO2 SLP031 T00111011 $
Loading
Personal Weather Stations






























Interactive Weather Map New forecast layout! Learn more

10-Day Weather Forecast

Advertisements
Track Severe Weather on mobile